createdAt,value
2022-10-25T01:13:28.394Z,100257.42
2022-10-25T01:16:11.468Z,100258.51
2022-10-25T01:19:06.168Z,100259.21
2022-10-25T01:21:47.520Z,100259.75
2022-10-25T01:24:53.446Z,100254.52
2022-10-25T01:28:15.707Z,100257.52
2022-10-25T01:31:22.406Z,100255.33
2022-10-25T01:34:03.222Z,100251.39
2022-10-25T01:36:52.626Z,100255.23
2022-10-25T01:39:31.052Z,100252.10
2022-10-25T01:42:09.546Z,100255.39
2022-10-25T01:45:21.297Z,100251.76
2022-10-25T01:48:10.035Z,100250.91
2022-10-25T01:50:47.633Z,100254.77
2022-10-25T01:53:18.275Z,100251.35
2022-10-25T01:55:59.652Z,100248.77
2022-10-25T01:58:48.249Z,100247.59
2022-10-25T02:01:30.427Z,100247.63
2022-10-25T02:04:08.531Z,100248.66
2022-10-25T02:06:49.066Z,100247.99
2022-10-25T02:09:34.992Z,100250.44
2022-10-25T02:12:09.512Z,100251.13
2022-10-25T02:14:42.127Z,100254.27
2022-10-25T02:17:21.135Z,100246.52
2022-10-25T02:19:59.214Z,100250.39
2022-10-25T02:22:33.306Z,100247.84
2022-10-25T02:25:03.762Z,100249.31
2022-10-25T02:27:35.534Z,100249.83
2022-10-25T02:30:07.195Z,100249.99
2022-10-25T02:32:37.987Z,100250.54
2022-10-25T02:35:16.314Z,100249.16
2022-10-25T02:37:47.103Z,100248.67
2022-10-25T02:40:18.012Z,100247.68
2022-10-25T02:42:48.241Z,100244.11
2022-10-25T02:45:18.526Z,100245.85
2022-10-25T02:47:49.214Z,100247.10
2022-10-25T02:50:19.995Z,100244.19
2022-10-25T02:52:50.346Z,100241.41
2022-10-25T02:55:20.745Z,100241.46
2022-10-25T02:57:51.074Z,100246.36
2022-10-25T03:00:21.563Z,100246.91
2022-10-25T03:02:57.137Z,100245.73
2022-10-25T03:05:27.510Z,100242.81
2022-10-25T03:07:57.932Z,100240.05
2022-10-25T03:10:28.321Z,100236.44
2022-10-25T03:12:58.901Z,100234.55
2022-10-25T03:15:33.331Z,100235.66
2022-10-25T03:18:03.842Z,100241.60
2022-10-25T03:20:34.392Z,100248.52
2022-10-25T03:23:05.170Z,100244.89
2022-10-25T03:25:35.625Z,100241.11
2022-10-25T03:28:06.132Z,100240.45
2022-10-25T03:30:37.131Z,100237.36
2022-10-25T03:33:08.813Z,100238.45
2022-10-25T03:35:39.432Z,100246.13
2022-10-25T03:38:09.972Z,100244.05
2022-10-25T03:40:40.512Z,100241.14
2022-10-25T03:43:11.153Z,100240.98
2022-10-25T03:45:41.732Z,100241.52
2022-10-25T03:48:12.413Z,100236.17
2022-10-25T03:50:43.432Z,100241.38
2022-10-25T03:53:13.890Z,100241.41
2022-10-25T03:55:44.262Z,100241.25
2022-10-25T03:58:16.593Z,100238.85
2022-10-25T04:00:47.144Z,100237.50
2022-10-25T04:03:17.622Z,100235.81
2022-10-25T04:05:47.991Z,100234.27
2022-10-25T04:08:18.492Z,100230.66
2022-10-25T04:10:49.046Z,100231.55
2022-10-25T04:13:19.737Z,100228.81
2022-10-25T04:15:50.089Z,100230.38
2022-10-25T04:18:21.369Z,100236.46
2022-10-25T04:20:53.297Z,100244.33
2022-10-25T04:23:23.713Z,100241.23
2022-10-25T04:25:57.049Z,100234.66
2022-10-25T04:28:29.768Z,100235.40
2022-10-25T04:31:03.100Z,100230.98
2022-10-25T04:33:33.493Z,100226.86
2022-10-25T04:36:04.126Z,100228.27
2022-10-25T04:38:37.068Z,100231.39
2022-10-25T04:41:07.896Z,100235.59
2022-10-25T04:43:38.595Z,100234.75
2022-10-25T04:46:09.627Z,100233.92
2022-10-25T04:48:41.266Z,100230.52
2022-10-25T04:51:13.274Z,100229.68
2022-10-25T04:53:43.857Z,100228.33
2022-10-25T04:56:15.786Z,100227.48
2022-10-25T04:58:46.293Z,100225.05
2022-10-25T05:01:18.836Z,100222.81
2022-10-25T05:03:49.646Z,100231.48
2022-10-25T05:06:24.233Z,100230.32
2022-10-25T05:08:55.633Z,100231.39
